Terminal Aerodrome Forecast
Issued by NWS Duluth, MN

Home | Current Version | Previous Version | Text Only | Print | Product List | Glossary On
Versions: 1 2 3 4 5 6 7 8 9 10 11 12 13 14 15 16 17
000
FTUS43 KDLH 282334
TAFINL
TAF
KINL 282334Z 2900/2924 15008KT P6SM VCTS SCT025CB BKN050
      TEMPO 2902/2905 3SM -TSRA BR BKN015CB OVC040
     FM290800 14004KT 5SM BR VCTS BKN025CB BKN060
     FM291100 17005KT 3SM -SHRA BR VCTS BKN015CB OVC050
     FM291600 27008KT P6SM VCSH BKN015 OVC050
     FM291900 29009KT P6SM SCT050 BKN150=

USA.gov is the U.S. government's official web portal to all federal, state and local government web resources and services.